Airfield :
LOGIN :

Register | Disclaimer

   EN    FR    IT 

 










Legend :    VFR   Marginal VFR   IFR   Intensive IFR   Very Intensive IFR
Visi :
Ceiling :
>= 8 km
>= 3000ft
5 to 8 km
1000 to 3000 ft
1500m to 5 km
500 to 1000 ft
800 to 1500m
200 to 500 ft
< 800m
< 200 ft
Symbols :   Thunderstorms  Fog  Heavy snow  Heavy precipitations  Wind > 20 kt
SIGMETs :     Misc.  Thunderstorms  Icing  Turbulence  Mountain Waves  Volcanic Ashes






- Airport Elevation : 162 ft
- IATA code : BOD


LFBD - Bordeaux / Merignac

CURRENT METAR :
  • 071000Z AUTO 17004KT 120V260 CAVOK 33/13 Q1015 NOSIG

EXPIRED METARs :
  • 070930Z AUTO 14006KT 090V210 CAVOK 32/13 Q1015 NOSIG
  • 070900Z AUTO 14007KT 110V180 CAVOK 30/13 Q1015 NOSIG
  • 070830Z AUTO 13009KT 090V160 CAVOK 29/13 Q1015 NOSIG
  • 070800Z AUTO 13008KT 100V160 CAVOK 28/12 Q1015 NOSIG
  • 070730Z AUTO 13008KT CAVOK 27/12 Q1015 NOSIG

TAF TAF LFBD
Valid from the 07 at 06:00 until the 08 at 12:00 UTC


070500Z 0706/0812 11006KT CAVOK TX39/0713Z TN22/0806Z
BECMG 0712/0714 26010KT
BECMG 0722/0724 BKN005
PROB40
TEMPO 0800/0807 3000 SHRA BKN065TCU
BECMG 0801/0803 SCT005
ATIS : +33 5 57 92 81 04



MET'MAP, your aeronautical weather chart ! - Copyright ORBIFLY December 2007 - Disclaimer

ORBIFLY MET'MAP TEAM :

Programming & Development : Alexandra Zaïnal
Concept & original design : Baudouin d'Aumeries
Assistance for programming : Marc-Olivier Méhu
Technical & hardware support : Manuel Goepfert

Contact : metmap@orbifly.com




SOURCES & CREDITS :

   NOAA